Time;durP1;ratioP1;P1;durP2;ratioP2;P2;SDS_P1;SDS_P2;PMS_P1;PMS_P2;Temp;Humidity;BMP_temperature;BMP_pressure;BME280_temperature;BME280_humidity;BME280_pressure;Samples;Min_cycle;Max_cycle;Signal;HPM_P1;HPM_P2
2023/09/30 05:00:28;;;;;;;5.33;3.90;;;;;;;;;;5949480;23;20720;-69
2023/09/30 05:02:55;;;;;;;9.03;4.70;;;;;;;;;;4955503;28;20556;-69
2023/09/30 05:05:21;;;;;;;9.27;4.87;;;;;;;;;;4949580;29;20432;-70
2023/09/30 05:07:48;;;;;;;7.07;4.67;;;;;;;;;;4946167;29;20762;-69
2023/09/30 05:10:15;;;;;;;10.20;4.33;;;;;;;;;;4936997;29;20424;-70
2023/09/30 05:12:45;;;;;;;7.17;4.30;;;;;;;;;;4954725;28;20472;-70
2023/09/30 05:15:11;;;;;;;11.33;5.97;;;;;;;;;;4954440;28;20419;-68
2023/09/30 05:17:37;;;;;;;10.37;5.80;;;;;;;;;;4954759;28;20431;-70
2023/09/30 05:20:06;;;;;;;8.67;5.17;;;;;;;;;;4954994;28;20863;-68
2023/09/30 05:22:33;;;;;;;8.83;4.53;;;;;;;;;;4954888;28;20413;-69
2023/09/30 05:25:00;;;;;;;11.93;4.63;;;;;;;;;;4954915;28;20421;-68
2023/09/30 05:27:27;;;;;;;14.00;5.50;;;;;;;;;;4954687;28;20460;-69
2023/09/30 05:29:53;;;;;;;12.00;6.03;;;;;;;;;;4954857;28;20496;-68
2023/09/30 05:32:19;;;;;;;13.97;5.57;;;;;;;;;;4954766;28;21048;-68
2023/09/30 05:34:45;;;;;;;9.00;5.43;;;;;;;;;;4954857;28;20419;-68
2023/09/30 05:37:12;;;;;;;9.97;4.60;;;;;;;;;;4954557;28;20408;-68
2023/09/30 05:39:38;;;;;;;14.10;5.33;;;;;;;;;;4954364;28;20421;-68
2023/09/30 05:42:05;;;;;;;12.37;5.40;;;;;;;;;;4954464;28;20440;-69
2023/09/30 05:44:31;;;;;;;9.97;5.63;;;;;;;;;;4954438;28;20417;-68
2023/09/30 05:46:59;;;;;;;8.87;4.90;;;;;;;;;;4954244;28;20428;-68
2023/09/30 05:49:25;;;;;;;13.20;5.60;;;;;;;;;;4954184;28;20904;-67
2023/09/30 05:51:51;;;;;;;14.23;5.03;;;;;;;;;;4954387;28;20456;-67
2023/09/30 05:54:17;;;;;;;12.10;5.03;;;;;;;;;;4954887;28;20461;-66
2023/09/30 05:56:43;;;;;;;10.77;4.87;;;;;;;;;;4954000;28;20491;-66
2023/09/30 05:59:09;;;;;;;8.30;4.80;;;;;;;;;;4954418;28;20932;-66
2023/09/30 06:01:35;;;;;;;8.20;5.27;;;;;;;;;;4940370;28;20526;-67
2023/09/30 06:04:02;;;;;;;15.43;5.73;;;;;;;;;;4935200;29;20921;-66
2023/09/30 06:06:29;;;;;;;5.70;4.60;;;;;;;;;;4933918;29;21003;-67
2023/09/30 06:08:58;;;;;;;13.50;5.03;;;;;;;;;;4933803;29;20417;-67
2023/09/30 06:11:30;;;;;;;10.00;4.70;;;;;;;;;;4934842;29;20894;-67
2023/09/30 06:13:59;;;;;;;10.73;4.23;;;;;;;;;;4933752;29;20410;-68
2023/09/30 06:16:26;;;;;;;12.57;4.77;;;;;;;;;;4934497;29;20424;-68
2023/09/30 06:18:53;;;;;;;14.93;5.27;;;;;;;;;;4935272;29;20436;-67
2023/09/30 06:21:20;;;;;;;10.97;5.87;;;;;;;;;;4933709;29;20497;-67
2023/09/30 06:23:46;;;;;;;10.27;5.10;;;;;;;;;;4934410;29;20421;-68
2023/09/30 06:26:12;;;;;;;9.57;5.30;;;;;;;;;;4926855;29;20437;-71
2023/09/30 06:28:41;;;;;;;12.73;5.87;;;;;;;;;;4926552;29;20473;-68
2023/09/30 06:31:08;;;;;;;10.67;6.10;;;;;;;;;;4934164;29;20802;-68
2023/09/30 06:33:34;;;;;;;12.20;5.43;;;;;;;;;;4934324;29;20972;-66
2023/09/30 06:36:02;;;;;;;12.60;5.40;;;;;;;;;;4934358;29;20537;-68
2023/09/30 06:38:28;;;;;;;13.20;5.93;;;;;;;;;;4933387;29;20418;-68
2023/09/30 06:40:54;;;;;;;11.43;5.03;;;;;;;;;;4933992;29;20448;-68
2023/09/30 06:43:20;;;;;;;15.23;5.57;;;;;;;;;;4934108;29;20816;-67
2023/09/30 06:45:46;;;;;;;10.83;5.73;;;;;;;;;;4934213;29;20410;-67
2023/09/30 06:48:12;;;;;;;9.83;5.40;;;;;;;;;;4934201;29;20980;-68
2023/09/30 06:50:45;;;;;;;9.00;4.93;;;;;;;;;;4933395;29;20887;-69
2023/09/30 06:53:11;;;;;;;12.17;6.20;;;;;;;;;;4934233;29;20564;-69
2023/09/30 06:55:38;;;;;;;8.90;4.87;;;;;;;;;;4934279;29;20445;-69
2023/09/30 06:58:07;;;;;;;13.53;5.50;;;;;;;;;;4933990;29;20420;-68
2023/09/30 07:00:33;;;;;;;14.43;5.40;;;;;;;;;;4939179;28;20462;-68
2023/09/30 07:02:59;;;;;;;19.53;5.80;;;;;;;;;;4956034;28;20433;-68
2023/09/30 07:05:25;;;;;;;8.20;4.93;;;;;;;;;;4950533;28;20452;-69
2023/09/30 07:10:56;;;;;;;11.43;5.70;;;;;;;;;;4932839;29;20440;-67
2023/09/30 07:13:22;;;;;;;10.27;5.40;;;;;;;;;;4934304;29;20483;-68
2023/09/30 07:15:48;;;;;;;10.40;5.43;;;;;;;;;;4927923;29;20418;-68
2023/09/30 07:18:14;;;;;;;19.13;7.30;;;;;;;;;;4931565;29;20432;-68
2023/09/30 07:20:40;;;;;;;13.20;6.30;;;;;;;;;;4927695;29;20476;-69
2023/09/30 07:23:06;;;;;;;15.40;5.87;;;;;;;;;;4937369;29;20464;-68
2023/09/30 07:25:32;;;;;;;11.50;5.80;;;;;;;;;;4936047;29;20794;-68
2023/09/30 07:27:59;;;;;;;10.80;5.73;;;;;;;;;;4938020;29;20410;-68
2023/09/30 07:30:26;;;;;;;8.83;5.63;;;;;;;;;;4938277;29;20410;-70
2023/09/30 07:32:51;;;;;;;13.90;6.30;;;;;;;;;;4955972;29;20527;-70
2023/09/30 07:35:17;;;;;;;12.10;5.87;;;;;;;;;;4958180;28;20495;-70
2023/09/30 07:37:44;;;;;;;11.80;5.70;;;;;;;;;;4957159;28;20409;-71
2023/09/30 07:40:10;;;;;;;20.77;6.07;;;;;;;;;;4957255;28;20412;-71
2023/09/30 07:42:36;;;;;;;11.40;5.37;;;;;;;;;;4960062;28;20417;-69
2023/09/30 07:45:03;;;;;;;14.43;6.17;;;;;;;;;;4959861;28;20463;-71
2023/09/30 07:47:31;;;;;;;17.60;6.30;;;;;;;;;;4959828;28;21109;-68
2023/09/30 07:49:57;;;;;;;12.23;5.63;;;;;;;;;;4962240;28;20432;-69
2023/09/30 07:52:23;;;;;;;13.20;6.73;;;;;;;;;;4960817;28;20507;-69
2023/09/30 07:54:49;;;;;;;11.17;6.23;;;;;;;;;;4957945;28;20420;-69
2023/09/30 07:57:15;;;;;;;9.90;5.83;;;;;;;;;;4940880;29;20429;-70
2023/09/30 07:59:41;;;;;;;14.40;6.10;;;;;;;;;;4948455;29;20432;-69
2023/09/30 08:02:08;;;;;;;15.87;5.80;;;;;;;;;;4941724;28;20465;-69
2023/09/30 08:04:34;;;;;;;10.30;5.90;;;;;;;;;;4937692;29;20421;-72
2023/09/30 08:07:00;;;;;;;12.53;5.70;;;;;;;;;;4949588;29;20428;-72
2023/09/30 08:09:26;;;;;;;9.60;5.00;;;;;;;;;;4956585;28;20425;-71
2023/09/30 08:11:56;;;;;;;14.23;6.00;;;;;;;;;;4943525;28;20479;-71
2023/09/30 08:14:22;;;;;;;12.73;5.90;;;;;;;;;;4938830;29;20428;-70
2023/09/30 08:16:49;;;;;;;15.60;5.80;;;;;;;;;;4955665;28;20507;-69
2023/09/30 08:19:15;;;;;;;15.00;6.10;;;;;;;;;;4956135;28;20416;-70
2023/09/30 08:21:41;;;;;;;10.90;6.37;;;;;;;;;;4954748;29;20432;-70
2023/09/30 08:30:14;;;;;;;16.30;5.07;;;;;;;;;;4955223;29;20447;-72
2023/09/30 08:32:40;;;;;;;16.23;5.73;;;;;;;;;;4944110;28;20563;-70
2023/09/30 08:35:07;;;;;;;8.40;5.10;;;;;;;;;;4936342;29;20426;-70
2023/09/30 08:37:33;;;;;;;9.53;5.17;;;;;;;;;;4935045;29;20872;-72
2023/09/30 08:39:59;;;;;;;15.03;5.67;;;;;;;;;;4936409;29;20901;-68
2023/09/30 08:42:32;;;;;;;13.23;5.57;;;;;;;;;;4936598;29;20437;-70
2023/09/30 08:44:59;;;;;;;14.80;5.33;;;;;;;;;;4936052;29;20919;-68
2023/09/30 08:47:28;;;;;;;9.93;5.30;;;;;;;;;;4936306;29;20509;-70
2023/09/30 08:49:57;;;;;;;12.00;5.57;;;;;;;;;;4936338;29;20410;-68
2023/09/30 08:52:23;;;;;;;12.07;4.90;;;;;;;;;;4936463;29;20465;-67
2023/09/30 08:54:49;;;;;;;19.47;6.10;;;;;;;;;;4936325;29;20470;-68
2023/09/30 08:57:19;;;;;;;8.80;4.60;;;;;;;;;;4936107;29;20418;-70
2023/09/30 08:59:47;;;;;;;21.80;7.07;;;;;;;;;;4936146;29;20496;-69
2023/09/30 09:02:13;;;;;;;11.40;5.30;;;;;;;;;;4935930;29;20460;-69
2023/09/30 09:04:39;;;;;;;11.53;5.50;;;;;;;;;;4935762;29;20496;-68
2023/09/30 09:07:05;;;;;;;15.43;5.30;;;;;;;;;;4929504;29;20961;-68
2023/09/30 09:09:32;;;;;;;14.17;5.63;;;;;;;;;;4934444;29;20905;-71
2023/09/30 09:11:58;;;;;;;9.13;5.00;;;;;;;;;;4934274;29;20536;-69
2023/09/30 09:14:37;;;;;;;15.90;5.80;;;;;;;;;;4932953;29;20498;-68
2023/09/30 09:17:04;;;;;;;11.03;5.10;;;;;;;;;;4929022;29;20508;-69
2023/09/30 09:19:31;;;;;;;16.30;5.47;;;;;;;;;;4930482;29;20450;-69
2023/09/30 09:22:00;;;;;;;9.30;5.00;;;;;;;;;;4929124;29;20957;-69
2023/09/30 09:24:29;;;;;;;8.60;5.07;;;;;;;;;;4927494;29;20414;-69
2023/09/30 09:27:04;;;;;;;11.10;6.00;;;;;;;;;;4928194;29;20429;-71
2023/09/30 09:29:30;;;;;;;8.60;4.77;;;;;;;;;;4932605;29;20420;-68
2023/09/30 09:32:07;;;;;;;11.70;6.20;;;;;;;;;;4925789;29;20565;-69
2023/09/30 09:34:33;;;;;;;9.63;4.80;;;;;;;;;;4930056;29;20455;-67
2023/09/30 09:36:59;;;;;;;8.40;5.17;;;;;;;;;;4935368;29;20479;-67
2023/09/30 09:39:31;;;;;;;13.00;5.87;;;;;;;;;;4932219;29;20419;-71
2023/09/30 09:41:57;;;;;;;8.33;4.57;;;;;;;;;;4917429;29;20438;-69
2023/09/30 09:44:25;;;;;;;11.50;5.67;;;;;;;;;;4928071;29;20773;-71
2023/09/30 09:46:51;;;;;;;14.10;5.67;;;;;;;;;;4930126;29;20418;-71
2023/09/30 09:49:17;;;;;;;13.33;5.60;;;;;;;;;;4932684;29;20959;-71
2023/09/30 09:51:48;;;;;;;15.40;5.70;;;;;;;;;;4934622;29;20457;-70
2023/09/30 09:54:15;;;;;;;9.33;4.63;;;;;;;;;;4936229;29;20549;-72
2023/09/30 09:56:41;;;;;;;12.00;5.90;;;;;;;;;;4931492;29;20798;-71
2023/09/30 09:59:08;;;;;;;12.17;5.70;;;;;;;;;;4934360;29;20462;-71
2023/09/30 10:01:34;;;;;;;12.47;5.17;;;;;;;;;;4933980;29;20449;-70
2023/09/30 10:04:01;;;;;;;9.90;5.57;;;;;;;;;;4932083;29;20425;-72
2023/09/30 10:06:27;;;;;;;15.97;5.13;;;;;;;;;;4925378;29;20839;-71
2023/09/30 10:08:54;;;;;;;12.53;5.50;;;;;;;;;;4932203;29;20903;-72
2023/09/30 10:11:21;;;;;;;9.37;4.70;;;;;;;;;;4932745;29;20430;-72
2023/09/30 10:14:00;;;;;;;11.80;5.80;;;;;;;;;;4931543;29;20469;-72
2023/09/30 10:16:49;;;;;;;14.00;4.90;;;;;;;;;;4930366;29;20509;-72
2023/09/30 10:19:15;;;;;;;8.97;5.37;;;;;;;;;;4922408;29;20425;-71
2023/09/30 10:22:00;;;;;;;13.97;6.50;;;;;;;;;;4915730;29;20437;-72
2023/09/30 10:24:27;;;;;;;13.30;5.40;;;;;;;;;;4929405;29;20433;-72
2023/09/30 10:27:12;;;;;;;14.93;4.90;;;;;;;;;;4914990;29;20414;-72
2023/09/30 10:29:44;;;;;;;12.53;5.47;;;;;;;;;;4915604;29;20547;-72
2023/09/30 10:32:10;;;;;;;13.97;5.00;;;;;;;;;;4932475;29;20472;-71
2023/09/30 10:34:36;;;;;;;9.87;5.50;;;;;;;;;;4934583;29;20425;-72
2023/09/30 10:37:20;;;;;;;9.10;5.77;;;;;;;;;;4920136;29;20575;-72
2023/09/30 10:39:54;;;;;;;11.77;5.70;;;;;;;;;;4937230;29;20528;-71
2023/09/30 10:42:39;;;;;;;15.93;5.27;;;;;;;;;;4938084;29;20449;-71
2023/09/30 10:45:05;;;;;;;13.70;5.90;;;;;;;;;;4928585;29;20422;-72
2023/09/30 10:47:31;;;;;;;11.00;5.70;;;;;;;;;;4938118;29;20520;-71
2023/09/30 10:49:57;;;;;;;13.30;5.40;;;;;;;;;;4937894;29;20453;-72
2023/09/30 10:52:24;;;;;;;12.30;5.63;;;;;;;;;;4938158;29;20563;-71
2023/09/30 10:54:50;;;;;;;10.17;5.70;;;;;;;;;;4938185;29;20422;-70
2023/09/30 10:57:28;;;;;;;14.53;6.20;;;;;;;;;;4938227;29;20425;-70
2023/09/30 11:00:12;;;;;;;11.90;5.50;;;;;;;;;;4940302;29;20895;-71
2023/09/30 11:02:50;;;;;;;11.80;5.27;;;;;;;;;;4930695;29;20437;-71
2023/09/30 11:05:16;;;;;;;14.20;6.00;;;;;;;;;;4937847;29;20421;-71
2023/09/30 11:07:42;;;;;;;12.30;5.73;;;;;;;;;;4938163;29;20424;-72
2023/09/30 11:10:08;;;;;;;16.60;5.50;;;;;;;;;;4933070;29;20417;-72
2023/09/30 11:12:34;;;;;;;12.23;5.80;;;;;;;;;;4935540;29;20461;-71
2023/09/30 11:15:03;;;;;;;13.10;5.87;;;;;;;;;;4934309;29;20424;-72
2023/09/30 11:17:29;;;;;;;12.43;5.50;;;;;;;;;;4929898;29;20790;-73
2023/09/30 11:19:55;;;;;;;11.20;5.53;;;;;;;;;;4937832;29;20414;-73
2023/09/30 11:22:21;;;;;;;12.97;5.40;;;;;;;;;;4937323;29;20449;-73
2023/09/30 11:24:47;;;;;;;14.83;5.77;;;;;;;;;;4937546;29;20448;-73
2023/09/30 11:27:13;;;;;;;15.27;5.73;;;;;;;;;;4937304;29;20421;-72
2023/09/30 11:29:49;;;;;;;10.47;5.83;;;;;;;;;;4937582;29;20422;-73
2023/09/30 11:32:26;;;;;;;12.23;5.57;;;;;;;;;;4935987;29;20493;-72
2023/09/30 11:34:53;;;;;;;14.87;6.40;;;;;;;;;;4937529;29;20449;-72
2023/09/30 11:37:18;;;;;;;13.20;6.17;;;;;;;;;;4937376;29;20428;-74
2023/09/30 11:39:45;;;;;;;9.80;5.40;;;;;;;;;;4937566;29;20418;-74
2023/09/30 11:42:19;;;;;;;14.17;5.23;;;;;;;;;;4931411;29;20449;-76
2023/09/30 11:44:50;;;;;;;20.13;6.73;;;;;;;;;;4937563;29;20992;-74
2023/09/30 11:47:16;;;;;;;11.70;5.20;;;;;;;;;;4936909;29;20866;-75
2023/09/30 11:49:54;;;;;;;15.53;6.30;;;;;;;;;;4937622;29;20461;-74
2023/09/30 11:52:27;;;;;;;14.73;5.60;;;;;;;;;;4936879;29;20531;-75
2023/09/30 11:54:53;;;;;;;10.17;5.40;;;;;;;;;;4937216;29;20418;-74
2023/09/30 11:57:19;;;;;;;13.80;5.70;;;;;;;;;;4935827;29;20437;-74
2023/09/30 11:59:46;;;;;;;12.20;5.50;;;;;;;;;;4936757;29;20418;-72
2023/09/30 12:02:17;;;;;;;15.43;6.27;;;;;;;;;;4936483;29;20977;-73
2023/09/30 12:04:43;;;;;;;13.10;6.10;;;;;;;;;;4936748;29;20424;-73
2023/09/30 12:07:09;;;;;;;14.70;6.20;;;;;;;;;;4936095;29;20788;-74
2023/09/30 12:09:37;;;;;;;14.83;6.17;;;;;;;;;;4943396;29;20433;-72
2023/09/30 12:12:03;;;;;;;14.50;6.20;;;;;;;;;;4928818;29;20470;-71
2023/09/30 12:14:30;;;;;;;17.10;6.47;;;;;;;;;;4929809;29;20430;-72
2023/09/30 12:16:56;;;;;;;11.53;6.07;;;;;;;;;;4927966;29;20418;-72
2023/09/30 12:19:22;;;;;;;11.50;6.43;;;;;;;;;;4926512;29;20422;-74
2023/09/30 12:21:48;;;;;;;13.50;6.40;;;;;;;;;;4921787;29;20441;-73
2023/09/30 12:24:16;;;;;;;11.60;6.40;;;;;;;;;;4935197;29;20444;-74
2023/09/30 12:26:48;;;;;;;15.90;7.07;;;;;;;;;;4935790;29;20514;-73
2023/09/30 12:29:16;;;;;;;16.93;7.00;;;;;;;;;;4933767;29;20426;-73
2023/09/30 12:31:43;;;;;;;21.93;6.80;;;;;;;;;;4931282;29;20445;-74
2023/09/30 12:34:09;;;;;;;12.97;6.53;;;;;;;;;;4929340;29;20516;-74
2023/09/30 12:36:35;;;;;;;13.03;5.33;;;;;;;;;;4933402;29;20517;-73
2023/09/30 12:39:01;;;;;;;14.70;5.70;;;;;;;;;;4934400;29;20418;-73
2023/09/30 12:41:29;;;;;;;13.63;6.43;;;;;;;;;;4933600;29;20443;-74
2023/09/30 12:43:56;;;;;;;19.20;7.60;;;;;;;;;;4937662;29;20425;-75
2023/09/30 12:46:24;;;;;;;17.00;6.23;;;;;;;;;;4939370;29;20434;-75
2023/09/30 12:48:50;;;;;;;22.93;6.17;;;;;;;;;;4930713;29;20495;-74
2023/09/30 12:51:17;;;;;;;18.13;7.27;;;;;;;;;;4936686;29;20441;-72
2023/09/30 12:53:43;;;;;;;14.77;6.27;;;;;;;;;;4936177;29;20473;-72
2023/09/30 12:56:09;;;;;;;12.13;5.60;;;;;;;;;;4925943;29;20426;-72
2023/09/30 12:58:35;;;;;;;25.10;7.50;;;;;;;;;;4933361;29;20513;-72
2023/09/30 13:01:01;;;;;;;11.90;6.63;;;;;;;;;;4933545;29;21028;-72
2023/09/30 13:03:27;;;;;;;11.50;6.20;;;;;;;;;;4931096;29;20422;-72
2023/09/30 13:05:54;;;;;;;10.33;5.37;;;;;;;;;;4918452;29;21098;-72
2023/09/30 13:08:20;;;;;;;19.20;5.97;;;;;;;;;;4933993;29;20432;-72
2023/09/30 13:10:48;;;;;;;17.30;6.07;;;;;;;;;;4930916;29;20524;-74
2023/09/30 13:13:13;;;;;;;17.17;7.40;;;;;;;;;;4931636;29;20469;-73
2023/09/30 13:15:40;;;;;;;16.63;6.73;;;;;;;;;;4935272;29;20414;-73
2023/09/30 13:18:06;;;;;;;14.60;6.70;;;;;;;;;;4935750;29;20417;-73
2023/09/30 13:20:32;;;;;;;14.93;6.53;;;;;;;;;;4935482;29;20496;-74
2023/09/30 13:22:58;;;;;;;13.40;5.90;;;;;;;;;;4935589;29;20521;-76
2023/09/30 13:25:24;;;;;;;18.40;6.50;;;;;;;;;;4935462;29;20426;-74
2023/09/30 13:27:50;;;;;;;15.23;7.00;;;;;;;;;;4935391;29;20422;-72
2023/09/30 13:30:17;;;;;;;15.63;6.13;;;;;;;;;;4934472;29;20426;-71
2023/09/30 13:32:44;;;;;;;16.47;6.87;;;;;;;;;;4931698;29;20540;-75
2023/09/30 13:35:10;;;;;;;16.13;6.70;;;;;;;;;;4935194;29;20449;-79
2023/09/30 13:37:36;;;;;;;17.80;7.23;;;;;;;;;;4931028;29;20420;-73
2023/09/30 13:40:04;;;;;;;13.87;7.20;;;;;;;;;;4920676;29;20406;-76
2023/09/30 13:42:30;;;;;;;14.97;5.90;;;;;;;;;;4924136;29;20782;-73
2023/09/30 13:45:00;;;;;;;15.27;6.33;;;;;;;;;;4920685;29;20414;-73
2023/09/30 13:47:26;;;;;;;16.47;7.00;;;;;;;;;;4915009;29;20501;-71
2023/09/30 13:49:52;;;;;;;23.10;6.93;;;;;;;;;;4925730;29;20493;-69
2023/09/30 13:52:18;;;;;;;15.53;6.03;;;;;;;;;;4932956;29;20476;-70
2023/09/30 13:54:44;;;;;;;13.30;6.60;;;;;;;;;;4934123;29;20410;-70
2023/09/30 13:57:10;;;;;;;14.43;6.73;;;;;;;;;;4940549;29;20433;-71
2023/09/30 13:59:36;;;;;;;10.80;5.90;;;;;;;;;;4935087;29;20413;-73
2023/09/30 14:02:03;;;;;;;11.50;5.93;;;;;;;;;;4934382;29;20457;-72
2023/09/30 14:04:32;;;;;;;15.07;7.30;;;;;;;;;;4934954;29;20843;-73
2023/09/30 14:07:02;;;;;;;35.73;14.30;;;;;;;;;;4934440;29;20513;-72
2023/09/30 14:09:28;;;;;;;13.00;6.00;;;;;;;;;;4931585;29;20449;-71
2023/09/30 14:11:54;;;;;;;20.00;9.50;;;;;;;;;;4920967;29;20549;-70
2023/09/30 14:14:20;;;;;;;15.87;6.17;;;;;;;;;;4915308;29;20443;-73
2023/09/30 14:16:46;;;;;;;14.90;6.40;;;;;;;;;;4927476;29;20512;-72
2023/09/30 14:19:13;;;;;;;15.20;6.70;;;;;;;;;;4918620;29;20447;-72
2023/09/30 14:21:39;;;;;;;16.27;6.97;;;;;;;;;;4927209;29;20959;-72
2023/09/30 14:24:06;;;;;;;17.70;6.47;;;;;;;;;;4936474;29;20496;-71
2023/09/30 14:26:32;;;;;;;17.07;6.60;;;;;;;;;;4926191;29;20561;-72
2023/09/30 14:28:58;;;;;;;17.57;6.77;;;;;;;;;;4928859;29;20417;-74
2023/09/30 14:31:24;;;;;;;13.93;6.77;;;;;;;;;;4927132;29;20441;-73
2023/09/30 14:33:54;;;;;;;17.90;6.70;;;;;;;;;;4916658;29;20470;-72
2023/09/30 14:36:20;;;;;;;19.50;7.43;;;;;;;;;;4932530;29;20905;-71
2023/09/30 14:38:46;;;;;;;17.43;7.20;;;;;;;;;;4925991;29;20414;-72
2023/09/30 14:41:12;;;;;;;14.80;6.40;;;;;;;;;;4919269;29;20489;-72
2023/09/30 14:43:39;;;;;;;14.40;6.20;;;;;;;;;;4915887;29;20831;-72
2023/09/30 14:46:05;;;;;;;12.27;6.97;;;;;;;;;;4929815;29;20457;-72
2023/09/30 14:48:31;;;;;;;14.53;6.37;;;;;;;;;;4924423;29;20431;-72
2023/09/30 14:50:58;;;;;;;20.67;7.03;;;;;;;;;;4920890;29;20437;-72
2023/09/30 14:53:24;;;;;;;12.50;5.70;;;;;;;;;;4933067;29;20457;-72
2023/09/30 14:55:50;;;;;;;13.37;6.30;;;;;;;;;;4915984;29;20796;-71
2023/09/30 14:58:16;;;;;;;15.13;7.23;;;;;;;;;;4930319;29;20438;-71
2023/09/30 15:00:42;;;;;;;14.20;6.60;;;;;;;;;;4921530;29;20458;-72
2023/09/30 15:03:08;;;;;;;15.53;6.67;;;;;;;;;;4915253;29;20426;-70
2023/09/30 15:05:35;;;;;;;12.80;6.00;;;;;;;;;;4933080;29;20422;-70
2023/09/30 15:08:01;;;;;;;14.77;7.50;;;;;;;;;;4940504;29;20481;-70
2023/09/30 15:10:28;;;;;;;20.50;7.23;;;;;;;;;;4936087;28;20513;-71
2023/09/30 15:12:54;;;;;;;13.87;6.50;;;;;;;;;;4932689;29;20524;-70
2023/09/30 15:15:20;;;;;;;16.30;6.50;;;;;;;;;;4918034;29;20841;-70
2023/09/30 15:17:47;;;;;;;13.23;6.13;;;;;;;;;;4916115;29;20429;-70
2023/09/30 15:20:13;;;;;;;15.87;6.10;;;;;;;;;;4929591;29;20556;-70
2023/09/30 15:22:39;;;;;;;11.37;5.20;;;;;;;;;;4929889;29;20791;-70
2023/09/30 15:25:05;;;;;;;18.27;6.33;;;;;;;;;;4933775;29;20845;-70
2023/09/30 15:27:31;;;;;;;22.10;7.03;;;;;;;;;;4928545;29;20763;-71
2023/09/30 15:29:59;;;;;;;14.03;6.10;;;;;;;;;;4932730;29;20428;-70
2023/09/30 15:32:25;;;;;;;17.80;6.63;;;;;;;;;;4932363;29;20472;-70
2023/09/30 15:34:51;;;;;;;14.23;6.97;;;;;;;;;;4936232;29;20421;-72
2023/09/30 15:37:17;;;;;;;12.97;6.70;;;;;;;;;;4932655;29;20517;-73
2023/09/30 15:39:46;;;;;;;15.83;6.67;;;;;;;;;;4937338;29;20524;-71
2023/09/30 15:42:13;;;;;;;18.33;7.23;;;;;;;;;;4938149;29;20864;-71
2023/09/30 15:44:39;;;;;;;13.73;6.27;;;;;;;;;;4942666;29;20474;-71
2023/09/30 15:47:06;;;;;;;15.10;6.87;;;;;;;;;;4918297;29;20442;-71
2023/09/30 15:49:32;;;;;;;16.63;7.33;;;;;;;;;;4918256;29;20489;-71
2023/09/30 15:51:58;;;;;;;17.07;6.53;;;;;;;;;;4918083;29;20454;-71
2023/09/30 15:54:24;;;;;;;20.17;6.83;;;;;;;;;;4918260;29;20453;-70
2023/09/30 15:56:50;;;;;;;19.37;6.60;;;;;;;;;;4929947;29;20497;-71
2023/09/30 15:59:16;;;;;;;13.63;6.23;;;;;;;;;;4937385;29;20433;-71
2023/09/30 16:01:43;;;;;;;15.37;6.53;;;;;;;;;;4936758;29;20457;-69
2023/09/30 16:04:09;;;;;;;24.43;7.53;;;;;;;;;;4937219;29;20857;-69
2023/09/30 16:06:36;;;;;;;21.50;6.70;;;;;;;;;;4939087;29;20435;-69
2023/09/30 16:09:01;;;;;;;12.23;5.73;;;;;;;;;;4933450;29;20442;-69
2023/09/30 16:11:28;;;;;;;13.83;6.03;;;;;;;;;;4935733;29;20504;-70
2023/09/30 16:13:54;;;;;;;18.10;6.77;;;;;;;;;;4929197;29;20469;-68
2023/09/30 16:16:20;;;;;;;15.50;6.20;;;;;;;;;;4936529;29;20941;-70
2023/09/30 16:18:47;;;;;;;14.93;6.60;;;;;;;;;;4936994;29;20418;-72
2023/09/30 16:21:14;;;;;;;18.47;7.47;;;;;;;;;;4933291;29;20553;-72
2023/09/30 16:23:40;;;;;;;15.93;6.93;;;;;;;;;;4934879;29;20507;-71
2023/09/30 16:26:05;;;;;;;16.23;7.20;;;;;;;;;;4936046;29;20762;-70
2023/09/30 16:28:31;;;;;;;16.73;6.10;;;;;;;;;;4936169;29;20783;-71
2023/09/30 16:31:01;;;;;;;20.03;6.80;;;;;;;;;;4936164;29;20441;-71
2023/09/30 16:33:27;;;;;;;13.60;5.93;;;;;;;;;;4941147;28;21058;-71
2023/09/30 16:35:53;;;;;;;20.87;7.67;;;;;;;;;;4920514;29;20800;-70
2023/09/30 16:38:20;;;;;;;18.17;7.03;;;;;;;;;;4917267;29;20426;-71
2023/09/30 16:40:47;;;;;;;17.23;6.97;;;;;;;;;;4928206;29;20464;-70
2023/09/30 16:43:13;;;;;;;14.33;6.23;;;;;;;;;;4936112;29;20449;-71
2023/09/30 16:45:39;;;;;;;16.33;7.27;;;;;;;;;;4917854;28;20454;-70
2023/09/30 16:48:05;;;;;;;16.17;6.87;;;;;;;;;;4916796;29;20907;-69
2023/09/30 16:50:31;;;;;;;15.90;6.60;;;;;;;;;;4916469;29;20450;-70
2023/09/30 16:52:57;;;;;;;16.93;7.70;;;;;;;;;;4916705;29;20478;-70
2023/09/30 16:55:23;;;;;;;16.57;7.03;;;;;;;;;;4930107;29;20765;-69
2023/09/30 16:57:49;;;;;;;18.23;6.90;;;;;;;;;;4930834;29;20434;-70
2023/09/30 17:00:15;;;;;;;15.27;7.60;;;;;;;;;;4935410;29;20417;-70
2023/09/30 17:02:42;;;;;;;20.70;7.03;;;;;;;;;;4935524;29;20929;-70
2023/09/30 17:05:08;;;;;;;15.70;7.67;;;;;;;;;;4935551;29;20449;-75
2023/09/30 17:07:34;;;;;;;27.63;8.17;;;;;;;;;;4935321;29;20516;-71
2023/09/30 17:10:01;;;;;;;19.90;7.50;;;;;;;;;;4932239;29;20511;-69
2023/09/30 17:12:26;;;;;;;19.13;8.30;;;;;;;;;;4942564;28;20521;-69
2023/09/30 17:14:52;;;;;;;17.60;8.23;;;;;;;;;;4934311;29;20785;-70
2023/09/30 17:17:18;;;;;;;18.20;7.53;;;;;;;;;;4934361;29;20446;-69
2023/09/30 17:19:44;;;;;;;26.63;7.10;;;;;;;;;;4923829;29;20921;-70
2023/09/30 17:22:11;;;;;;;21.30;7.67;;;;;;;;;;4933173;29;20960;-70
2023/09/30 17:24:37;;;;;;;22.40;7.90;;;;;;;;;;4933509;29;20928;-71
2023/09/30 17:27:04;;;;;;;16.30;6.93;;;;;;;;;;4932786;29;20524;-70
2023/09/30 17:29:30;;;;;;;19.43;7.73;;;;;;;;;;4933490;29;20782;-71
2023/09/30 17:31:56;;;;;;;16.67;7.00;;;;;;;;;;4934957;29;20448;-71
2023/09/30 17:34:22;;;;;;;15.70;7.80;;;;;;;;;;4919204;29;20503;-71
2023/09/30 17:36:48;;;;;;;20.07;8.20;;;;;;;;;;4929413;29;20542;-72
2023/09/30 17:39:14;;;;;;;21.20;7.87;;;;;;;;;;4935522;29;20414;-72
2023/09/30 17:41:40;;;;;;;22.30;7.73;;;;;;;;;;4933958;29;20455;-72
2023/09/30 17:44:06;;;;;;;15.10;7.57;;;;;;;;;;4936782;29;20498;-71
2023/09/30 17:46:32;;;;;;;23.67;8.83;;;;;;;;;;4919373;28;20423;-72
2023/09/30 17:48:58;;;;;;;15.97;7.60;;;;;;;;;;4915975;29;20442;-71
2023/09/30 17:51:24;;;;;;;12.90;6.17;;;;;;;;;;4931896;29;20533;-72
2023/09/30 17:53:51;;;;;;;15.03;7.40;;;;;;;;;;4927434;29;20481;-72
2023/09/30 17:56:17;;;;;;;20.47;6.90;;;;;;;;;;4930091;29;20440;-73
2023/09/30 17:58:43;;;;;;;19.40;8.13;;;;;;;;;;4937088;29;20799;-71
2023/09/30 18:01:09;;;;;;;16.60;7.00;;;;;;;;;;4915995;29;20461;-71
2023/09/30 18:03:35;;;;;;;26.23;7.77;;;;;;;;;;4931760;29;20512;-71
2023/09/30 18:06:11;;;;;;;15.50;7.07;;;;;;;;;;4934922;29;20512;-72
2023/09/30 18:08:38;;;;;;;18.67;8.57;;;;;;;;;;4934874;29;20469;-71
2023/09/30 18:11:03;;;;;;;21.10;7.17;;;;;;;;;;4935084;29;20580;-72
2023/09/30 18:13:31;;;;;;;18.50;6.83;;;;;;;;;;4934650;29;20559;-71
2023/09/30 18:15:57;;;;;;;23.23;7.93;;;;;;;;;;4934277;29;20425;-71
2023/09/30 18:18:23;;;;;;;21.37;8.40;;;;;;;;;;4946139;28;20949;-69
2023/09/30 18:20:49;;;;;;;18.00;9.60;;;;;;;;;;4932210;29;20497;-69
2023/09/30 18:23:15;;;;;;;21.97;9.10;;;;;;;;;;4931041;29;20414;-70
2023/09/30 18:25:41;;;;;;;21.60;9.30;;;;;;;;;;4931723;29;20420;-70
2023/09/30 18:28:07;;;;;;;22.57;8.50;;;;;;;;;;4931637;29;20414;-69
2023/09/30 18:30:33;;;;;;;19.37;8.30;;;;;;;;;;4929703;29;20516;-69
2023/09/30 18:33:01;;;;;;;22.73;9.47;;;;;;;;;;4931721;29;20465;-69
2023/09/30 18:35:27;;;;;;;21.27;9.43;;;;;;;;;;4919298;29;20427;-70
2023/09/30 18:37:53;;;;;;;20.83;8.60;;;;;;;;;;4916116;29;20493;-71
2023/09/30 18:40:19;;;;;;;18.70;9.77;;;;;;;;;;4916813;29;20415;-70
2023/09/30 18:42:45;;;;;;;20.23;9.83;;;;;;;;;;4932052;29;20437;-71
2023/09/30 18:45:12;;;;;;;24.10;8.90;;;;;;;;;;4921283;29;20429;-72
2023/09/30 18:47:38;;;;;;;22.67;9.30;;;;;;;;;;4946835;29;20502;-71
2023/09/30 18:50:04;;;;;;;22.40;9.43;;;;;;;;;;4943923;29;20434;-71
2023/09/30 18:52:31;;;;;;;21.83;9.83;;;;;;;;;;4931019;29;20518;-71
2023/09/30 18:58:01;;;;;;;22.13;11.47;;;;;;;;;;4937262;29;20448;-71
2023/09/30 19:00:27;;;;;;;24.80;11.13;;;;;;;;;;4946322;29;20413;-70
2023/09/30 19:03:26;;;;;;;23.77;10.70;;;;;;;;;;4927227;29;20409;-71
2023/09/30 19:05:54;;;;;;;25.07;10.27;;;;;;;;;;4927919;29;20422;-72
2023/09/30 19:08:22;;;;;;;27.53;11.73;;;;;;;;;;4923156;29;20506;-72
2023/09/30 19:10:48;;;;;;;27.70;11.53;;;;;;;;;;4920130;29;20457;-71
2023/09/30 19:13:14;;;;;;;25.73;10.63;;;;;;;;;;4926521;29;20469;-72
2023/09/30 19:15:42;;;;;;;22.93;11.13;;;;;;;;;;4920395;29;20423;-71
2023/09/30 19:24:15;;;;;;;28.10;11.00;;;;;;;;;;4930421;29;20420;-71
2023/09/30 19:26:42;;;;;;;26.43;11.27;;;;;;;;;;4934630;29;20931;-72
2023/09/30 19:32:11;;;;;;;29.43;11.67;;;;;;;;;;4928151;29;20547;-71
2023/09/30 19:34:37;;;;;;;24.40;12.17;;;;;;;;;;4935182;29;20820;-71
2023/09/30 19:37:03;;;;;;;29.50;11.40;;;;;;;;;;4918074;29;20427;-71
2023/09/30 19:39:29;;;;;;;22.13;10.60;;;;;;;;;;4923257;29;20439;-71
2023/09/30 19:41:55;;;;;;;27.13;11.20;;;;;;;;;;4929541;29;20449;-71
2023/09/30 19:44:21;;;;;;;21.10;10.30;;;;;;;;;;4937433;29;20906;-71
2023/09/30 19:46:47;;;;;;;28.83;10.90;;;;;;;;;;4934813;29;20504;-71
2023/09/30 19:49:16;;;;;;;23.30;9.93;;;;;;;;;;4923449;29;20947;-71
2023/09/30 19:51:43;;;;;;;27.30;11.13;;;;;;;;;;4918113;29;20994;-68